Aleknagik, Alaska
Current Conditions -  °F | °C
As of 7:45 AM on Friday 31 Oct 2014 (Local Time) from PADL Reporting Station
Overcast Overcast  
Wind Chill: -2°   Ceiling: 1400
Heat Index: 16°   Visibility: 10mi
Dew Point: 12°   Wind: 21mph
Humidity: 86%   Direction: 10°N
Pressure: 29.2"   Gusts: 30mph
Location:  59.27°N, 158.62°W
Report Text: PADL 311545Z 01018G26KT 10SM BKN014 OVC120 M09/M11 A2920
Loading
Personal Weather Stations






























Interactive Weather Map
Tropical Storm Tracking
New forecast layout! Learn more

10-Day Weather Forecast

Advertisements
Track Severe Weather on mobile